createdAt,value
2023-01-01T07:53:15.760Z,3.13
2023-01-01T07:56:17.196Z,2.80
2023-01-01T07:59:20.457Z,2.50
2023-01-01T08:02:22.277Z,3.17
2023-01-01T08:05:26.825Z,2.50
2023-01-01T08:08:28.902Z,2.78
2023-01-01T08:11:30.273Z,2.72
2023-01-01T08:14:31.573Z,2.40
2023-01-01T08:17:32.869Z,1.95
2023-01-01T08:20:34.417Z,3.22
2023-01-01T08:23:35.707Z,2.83
2023-01-01T08:26:39.711Z,2.63
2023-01-01T08:29:41.081Z,2.45
2023-01-01T08:32:42.577Z,2.75
2023-01-01T08:35:46.635Z,3.78
2023-01-01T08:38:54.142Z,4.53
2023-01-01T08:41:57.709Z,3.05
2023-01-01T08:44:58.985Z,6.10
2023-01-01T08:48:00.501Z,2.75
2023-01-01T08:51:01.860Z,2.40
2023-01-01T08:54:03.350Z,2.92
2023-01-01T08:57:04.839Z,2.70
2023-01-01T09:00:09.158Z,2.42
2023-01-01T09:06:11.856Z,2.33
2023-01-01T09:09:15.062Z,2.47
2023-01-01T09:12:16.533Z,1.98
2023-01-01T09:15:17.905Z,3.13
2023-01-01T09:18:19.218Z,2.53
2023-01-01T09:21:20.454Z,2.47
2023-01-01T09:24:21.748Z,4.07
2023-01-01T09:27:23.264Z,2.92
2023-01-01T09:30:24.787Z,4.05
2023-01-01T09:33:26.191Z,3.05
2023-01-01T09:36:30.761Z,3.65
2023-01-01T09:39:32.065Z,2.67
2023-01-01T09:42:40.389Z,3.20
2023-01-01T09:45:47.353Z,3.03
2023-01-01T09:48:53.035Z,3.13
2023-01-01T09:51:58.305Z,3.47
2023-01-01T09:55:03.298Z,4.70
2023-01-01T09:58:04.648Z,2.90
2023-01-01T10:01:24.982Z,2.22
2023-01-01T10:04:51.407Z,2.50
2023-01-01T10:08:08.212Z,2.05
2023-01-01T10:11:18.233Z,2.25
2023-01-01T10:14:41.320Z,2.22
2023-01-01T10:17:46.577Z,2.75
2023-01-01T10:20:58.958Z,2.25
2023-01-01T10:24:05.769Z,2.13
2023-01-01T10:27:07.114Z,4.72
2023-01-01T10:30:19.081Z,3.38
2023-01-01T10:33:20.356Z,2.03
2023-01-01T10:36:21.684Z,2.10
2023-01-01T10:39:23.777Z,1.58
2023-01-01T10:42:25.791Z,1.83
2023-01-01T10:45:30.285Z,1.83
2023-01-01T10:48:32.475Z,2.10
2023-01-01T10:51:36.675Z,1.75
2023-01-01T10:54:40.015Z,2.75
2023-01-01T10:57:41.312Z,1.98
2023-01-01T11:00:42.649Z,1.60
2023-01-01T11:03:54.581Z,2.13
2023-01-01T11:06:56.343Z,1.92
2023-01-01T11:10:04.323Z,1.60
2023-01-01T11:13:17.696Z,1.67
2023-01-01T11:16:19.228Z,1.30
2023-01-01T11:19:23.725Z,1.45
2023-01-01T11:22:36.968Z,1.20
2023-01-01T11:25:38.244Z,1.55
2023-01-01T11:28:40.462Z,1.08
2023-01-01T11:31:42.976Z,1.30
2023-01-01T11:34:44.638Z,1.80
2023-01-01T11:37:46.389Z,1.80
2023-01-01T11:40:49.470Z,1.25
2023-01-01T11:43:50.959Z,1.70
2023-01-01T11:46:52.474Z,1.70
2023-01-01T11:49:55.227Z,1.77
2023-01-01T11:52:58.715Z,1.90
2023-01-01T11:56:05.924Z,1.55
2023-01-01T11:59:16.013Z,1.70
2023-01-01T12:02:23.449Z,1.63
2023-01-01T12:05:26.767Z,1.67
2023-01-01T12:08:33.104Z,1.38
2023-01-01T12:11:49.603Z,1.70
2023-01-01T12:14:56.909Z,1.42
2023-01-01T12:18:00.955Z,1.35
2023-01-01T12:24:06.197Z,1.42
2023-01-01T12:30:22.540Z,1.55
2023-01-01T12:33:24.142Z,1.67
2023-01-01T12:36:46.169Z,1.35
2023-01-01T12:39:59.588Z,1.40
2023-01-01T12:43:09.406Z,1.80
2023-01-01T12:46:16.222Z,1.60
2023-01-01T12:49:25.596Z,1.35
2023-01-01T12:52:54.019Z,1.33
2023-01-01T12:56:01.197Z,1.30
2023-01-01T12:59:15.506Z,1.85
2023-01-01T13:02:21.725Z,1.45
2023-01-01T13:05:25.668Z,1.77
2023-01-01T13:08:27.050Z,1.60
2023-01-01T13:11:28.453Z,1.40
2023-01-01T13:14:38.757Z,1.67
2023-01-01T13:17:40.052Z,1.85
2023-01-01T13:20:43.553Z,1.42
2023-01-01T13:23:45.478Z,1.55
2023-01-01T13:26:48.976Z,1.80
2023-01-01T13:29:51.247Z,1.60
2023-01-01T13:33:10.865Z,1.45
2023-01-01T13:36:18.064Z,1.88
2023-01-01T13:39:38.407Z,1.90
2023-01-01T13:43:06.502Z,1.60
2023-01-01T13:46:13.559Z,1.55
2023-01-01T13:49:27.618Z,1.60
2023-01-01T13:52:52.377Z,1.70
2023-01-01T13:56:12.281Z,1.92
2023-01-01T13:59:35.377Z,1.70
2023-01-01T14:02:42.433Z,2.17
2023-01-01T14:05:43.812Z,2.42
2023-01-01T14:08:45.083Z,2.60
2023-01-01T14:11:46.426Z,2.25
2023-01-01T14:14:48.011Z,1.60
2023-01-01T14:17:49.599Z,1.80
2023-01-01T14:20:51.838Z,1.90
2023-01-01T14:23:55.751Z,2.33
2023-01-01T14:26:57.048Z,2.55
2023-01-01T14:29:58.366Z,2.13
2023-01-01T14:33:00.668Z,1.80
2023-01-01T14:36:04.288Z,1.83
2023-01-01T14:39:27.001Z,1.95
2023-01-01T14:42:29.089Z,2.63
2023-01-01T14:45:32.190Z,1.98
2023-01-01T14:48:34.813Z,2.00
2023-01-01T14:51:44.070Z,1.83
2023-01-01T14:54:46.321Z,2.38
2023-01-01T14:57:50.109Z,1.92
2023-01-01T15:00:51.953Z,2.20
2023-01-01T15:03:57.397Z,1.90
2023-01-01T15:06:59.706Z,1.90
2023-01-01T15:10:02.276Z,2.28
2023-01-01T15:13:07.246Z,1.90
2023-01-01T15:16:16.564Z,2.00
2023-01-01T15:19:18.137Z,1.90
2023-01-01T15:22:26.082Z,2.10
2023-01-01T15:25:27.484Z,2.50
2023-01-01T15:28:28.923Z,2.35
2023-01-01T15:31:34.241Z,3.75
2023-01-01T15:34:41.162Z,3.40
2023-01-01T15:37:47.490Z,4.60
2023-01-01T15:40:53.227Z,3.70
2023-01-01T15:44:06.565Z,3.42
2023-01-01T15:47:15.158Z,3.25
2023-01-01T15:50:16.397Z,3.83
2023-01-01T15:53:28.147Z,3.38
2023-01-01T15:56:30.543Z,2.85
2023-01-01T15:59:33.963Z,3.75
2023-01-01T16:02:37.408Z,2.72
2023-01-01T16:05:46.011Z,3.17
2023-01-01T16:08:47.342Z,3.85
2023-01-01T16:11:52.192Z,3.60
2023-01-01T16:14:53.450Z,3.53
2023-01-01T16:17:55.201Z,3.75
2023-01-01T16:20:56.498Z,4.38
2023-01-01T16:23:57.815Z,3.78
2023-01-01T16:26:59.129Z,3.80
2023-01-01T16:30:00.436Z,3.50
2023-01-01T16:33:02.157Z,3.30
2023-01-01T16:36:03.676Z,3.33
2023-01-01T16:39:04.931Z,3.47
2023-01-01T16:42:08.267Z,3.67
2023-01-01T16:45:15.496Z,3.40
2023-01-01T16:48:16.763Z,3.58
2023-01-01T16:51:20.585Z,4.22
2023-01-01T16:54:21.891Z,3.58
2023-01-01T16:57:23.257Z,4.63
2023-01-01T17:00:24.584Z,3.50
2023-01-01T17:03:25.942Z,3.72
2023-01-01T17:06:27.269Z,5.95
2023-01-01T17:09:28.637Z,4.68
2023-01-01T17:12:29.909Z,5.13
2023-01-01T17:15:31.737Z,7.88
2023-01-01T17:19:04.194Z,6.78
2023-01-01T17:21:54.632Z,6.25
2023-01-01T17:24:55.953Z,6.43
2023-01-01T17:27:57.203Z,5.13
2023-01-01T17:31:02.346Z,4.32
2023-01-01T17:34:04.047Z,4.28
2023-01-01T17:37:05.366Z,4.40
2023-01-01T17:40:07.108Z,5.07
2023-01-01T17:43:08.367Z,4.10
2023-01-01T17:46:14.274Z,4.00
2023-01-01T17:49:15.943Z,3.85
2023-01-01T17:52:17.495Z,4.90
2023-01-01T17:55:18.815Z,4.75
2023-01-01T17:58:21.719Z,4.55
2023-01-01T18:01:23.222Z,6.47
2023-01-01T18:04:24.782Z,5.90
2023-01-01T18:07:26.061Z,5.97
2023-01-01T18:10:28.170Z,6.78
2023-01-01T18:13:29.481Z,4.97
2023-01-01T18:16:31.785Z,4.22
2023-01-01T18:19:33.105Z,5.03
2023-01-01T18:22:39.486Z,31.48
2023-01-01T18:25:44.171Z,37.92
2023-01-01T18:28:45.523Z,14.02
2023-01-01T18:31:46.880Z,9.70
2023-01-01T18:34:48.687Z,5.85
2023-01-01T18:37:50.150Z,3.40
2023-01-01T18:41:00.207Z,3.90
2023-01-01T18:44:02.259Z,4.95
2023-01-01T18:47:06.805Z,9.98
2023-01-01T18:50:14.782Z,4.07
2023-01-01T18:53:20.195Z,2.58
2023-01-01T18:56:21.576Z,1.88
2023-01-01T18:59:24.147Z,2.97
2023-01-01T19:02:25.578Z,2.00
2023-01-01T19:05:31.448Z,10.73
2023-01-01T19:08:32.851Z,5.35
2023-01-01T19:11:36.532Z,6.32
2023-01-01T19:14:37.883Z,7.38
2023-01-01T19:17:39.157Z,6.65
2023-01-01T19:20:40.476Z,7.18
2023-01-01T19:23:47.553Z,7.65
2023-01-01T19:26:49.927Z,3.42
2023-01-01T19:29:51.642Z,5.68
2023-01-01T19:32:52.933Z,5.80
2023-01-01T19:35:54.234Z,9.48
2023-01-01T19:38:55.653Z,7.15
2023-01-01T19:42:03.555Z,8.68
2023-01-01T19:45:06.955Z,8.90
2023-01-01T19:48:08.264Z,7.60
2023-01-01T19:51:09.680Z,9.15
2023-01-01T19:54:11.395Z,6.28
2023-01-01T19:57:14.041Z,8.30
2023-01-01T20:00:16.805Z,6.00
2023-01-01T20:06:39.454Z,7.88
2023-01-01T20:09:41.002Z,5.55
2023-01-01T20:12:42.322Z,5.15
2023-01-01T20:15:46.874Z,4.45
2023-01-01T20:18:49.357Z,3.63
2023-01-01T20:22:09.442Z,2.78
2023-01-01T20:25:10.817Z,2.70
2023-01-01T20:28:30.925Z,3.45
2023-01-01T20:31:32.289Z,3.60
2023-01-01T20:34:33.674Z,3.53
2023-01-01T20:37:38.098Z,3.42
2023-01-01T20:40:39.425Z,3.85
2023-01-01T20:43:40.712Z,3.15
2023-01-01T20:46:42.349Z,2.60
2023-01-01T20:49:43.640Z,2.30
2023-01-01T20:52:44.898Z,2.33
2023-01-01T20:55:46.175Z,3.03
2023-01-01T20:58:50.160Z,3.15
2023-01-01T21:01:53.763Z,2.00
2023-01-01T21:04:55.151Z,2.50
2023-01-01T21:07:56.526Z,2.17
2023-01-01T21:10:57.811Z,2.42
2023-01-01T21:13:59.333Z,2.30
2023-01-01T21:17:02.614Z,1.85
2023-01-01T21:20:04.218Z,2.10
2023-01-01T21:23:09.868Z,3.08
2023-01-01T21:26:25.260Z,2.72
2023-01-01T21:29:31.730Z,3.30
2023-01-01T21:32:36.605Z,2.58
2023-01-01T21:35:37.895Z,2.30
2023-01-01T21:38:39.193Z,2.60
2023-01-01T21:41:40.484Z,2.40
2023-01-01T21:44:41.826Z,3.20
2023-01-01T21:47:43.241Z,2.05
2023-01-01T21:50:46.275Z,2.13
2023-01-01T21:53:47.958Z,2.90
2023-01-01T21:56:59.245Z,2.20
2023-01-01T22:00:01.330Z,2.15
2023-01-01T22:03:02.666Z,2.60
2023-01-01T22:06:10.959Z,2.28
2023-01-01T22:09:21.352Z,1.58
2023-01-01T22:12:29.651Z,2.55
2023-01-01T22:15:38.015Z,1.88
2023-01-01T22:18:39.335Z,1.98
2023-01-01T22:21:40.631Z,2.47
2023-01-01T22:24:43.625Z,2.05
2023-01-01T22:27:45.720Z,1.50
2023-01-01T22:30:48.414Z,1.98
2023-01-01T22:33:51.187Z,1.75
2023-01-01T22:36:52.802Z,2.20
2023-01-01T22:39:54.119Z,1.50
2023-01-01T22:43:03.641Z,1.20
2023-01-01T22:46:12.267Z,1.92
2023-01-01T22:49:24.076Z,2.35
2023-01-01T22:52:25.366Z,1.90
2023-01-01T22:55:26.608Z,2.45
2023-01-01T22:58:27.871Z,1.50
2023-01-01T23:01:29.189Z,1.90
2023-01-01T23:04:30.514Z,1.50
2023-01-01T23:07:36.595Z,1.80
2023-01-01T23:10:41.015Z,4.70
2023-01-01T23:14:01.193Z,3.22
2023-01-01T23:17:02.488Z,1.77
2023-01-01T23:20:04.518Z,1.98
2023-01-01T23:23:05.981Z,2.58
2023-01-01T23:26:08.146Z,2.22
2023-01-01T23:29:10.248Z,1.80
2023-01-01T23:32:12.027Z,2.13
2023-01-01T23:35:13.502Z,2.20
2023-01-01T23:38:14.955Z,2.50
2023-01-01T23:41:16.229Z,1.60
2023-01-01T23:44:17.836Z,1.90
2023-01-01T23:47:19.135Z,1.45
2023-01-01T23:50:20.703Z,1.88
2023-01-01T23:53:21.973Z,1.42
2023-01-01T23:56:23.308Z,2.33
2023-01-01T23:59:24.598Z,1.80
